Terminal Aerodrome Forecast
Issued by NWS

Home | Current Version | Previous Version | Graphics & Text | Print | Product List | Glossary On
Versions: 1 2 3 4 5 6 7 8 9 10 11 12 13 14 15
023
FTUS42 KMHX 072051 AAA
TAFOAJ
TAF AMD
KOAJ 072051Z 0721/0818 34015G28KT 6SM -RA SCT030 BKN060
      TEMPO 0721/0723 4SM -RA BKN030
     FM080100 32012G20KT P6SM BKN050
     FM080800 33005KT P6SM FEW090
     FM081200 29005KT P6SM SKC
      AMD LTD TO CLD VIS AND WIND=

USA.gov is the U.S. government's official web portal to all federal, state and local government web resources and services.